sim
Sign-in with your pilot id or email,
or register
Callsign
Passwort

Schedule Details

Flight Number: RYR5797 (3)
Departure: Frankfurt Hahn Airport (EDFH) at 15:40
Arrival: Thessaloniki International Airport (LGTS) at 18:15
Route: Ryanair Passenger Schedule. Enter filed route here before submitting Pirep.

Weather Information
Getting current METAR information for EDFH 211520Z 27009KT 9999 FEW023 10/05 Q1027
Getting current METAR information for LGTS 211550Z 35005KT CAVOK 14/00 Q1021 NOSIG

Schedule Frequency

Route Map